Time;durP1;ratioP1;P1;durP2;ratioP2;P2;SDS_P1;SDS_P2;PMS_P1;PMS_P2;Temp;Humidity;BMP_temperature;BMP_pressure;BME280_temperature;BME280_humidity;BME280_pressure;Samples;Min_cycle;Max_cycle;Signal;HPM_P1;HPM_P2
2022/02/28 00:03:24;;;;;;;25.73;13.48;;;;;;;2.25;100.00;103428.91;10088490;28;20067;-69
2022/02/28 00:08:20;;;;;;;24.23;11.40;;;;;;;2.14;100.00;103426.72;10087387;28;20073;-69
2022/02/28 00:13:17;;;;;;;27.05;11.45;;;;;;;2.05;100.00;103427.91;10096056;28;20125;-70
2022/02/28 00:18:13;;;;;;;22.92;11.90;;;;;;;2.04;100.00;103437.00;10096330;28;20074;-68
2022/02/28 00:23:10;;;;;;;27.80;12.80;;;;;;;1.92;100.00;103428.59;10085385;28;20047;-69
2022/02/28 00:28:07;;;;;;;26.58;12.40;;;;;;;1.87;100.00;103431.88;10082502;28;20059;-68
2022/02/28 00:33:05;;;;;;;24.90;12.68;;;;;;;1.88;100.00;103438.09;10089342;28;20055;-69
2022/02/28 00:38:06;;;;;;;22.90;12.10;;;;;;;1.79;100.00;103432.03;10092671;28;20501;-68
2022/02/28 00:43:02;;;;;;;23.67;12.50;;;;;;;1.72;100.00;103433.81;10091547;28;20047;-69
2022/02/28 00:47:59;;;;;;;26.45;12.80;;;;;;;1.67;100.00;103439.78;10092155;28;20509;-69
2022/02/28 00:52:55;;;;;;;25.58;12.95;;;;;;;1.64;100.00;103428.53;10094856;28;20078;-69
2022/02/28 00:57:52;;;;;;;24.60;12.65;;;;;;;1.59;100.00;103428.28;10090575;28;20138;-69
2022/02/28 01:02:49;;;;;;;25.08;13.18;;;;;;;1.58;100.00;103422.06;10090027;28;20074;-68
2022/02/28 01:07:48;;;;;;;27.85;13.10;;;;;;;1.52;100.00;103421.97;10083773;28;20047;-69
2022/02/28 01:12:44;;;;;;;27.10;13.60;;;;;;;1.45;100.00;103406.53;10092952;28;20081;-70
2022/02/28 01:17:42;;;;;;;21.17;11.57;;;;;;;1.38;100.00;103411.03;10090661;28;20070;-68
2022/02/28 01:22:39;;;;;;;24.83;14.07;;;;;;;1.39;100.00;103407.31;10085928;28;20039;-68
2022/02/28 01:27:38;;;;;;;23.45;11.25;;;;;;;1.35;100.00;103411.44;10096069;28;20055;-68
2022/02/28 01:32:35;;;;;;;27.80;12.82;;;;;;;1.22;100.00;103420.16;10088684;28;20046;-69
2022/02/28 01:37:31;;;;;;;28.92;13.23;;;;;;;1.20;100.00;103413.31;10090188;28;20395;-69
2022/02/28 01:42:28;;;;;;;24.95;11.77;;;;;;;1.17;100.00;103409.13;10085112;28;20109;-69
2022/02/28 01:47:24;;;;;;;23.35;12.13;;;;;;;1.15;100.00;103404.97;10090946;28;20050;-68
2022/02/28 01:52:24;;;;;;;26.58;13.00;;;;;;;1.09;100.00;103400.31;10082238;28;20098;-69
2022/02/28 01:57:21;;;;;;;26.52;12.18;;;;;;;0.99;100.00;103401.44;10085520;28;20050;-69
2022/02/28 02:02:17;;;;;;;24.45;13.05;;;;;;;0.95;100.00;103400.16;10088766;28;20043;-69
2022/02/28 02:07:14;;;;;;;25.35;13.10;;;;;;;0.86;100.00;103401.28;11055243;23;20062;-69
2022/02/28 02:12:11;;;;;;;20.77;11.10;;;;;;;0.80;100.00;103396.63;10144117;28;20046;-67
2022/02/28 02:17:08;;;;;;;25.48;12.93;;;;;;;0.79;100.00;103401.19;10147257;28;20140;-67
2022/02/28 02:22:05;;;;;;;23.63;12.70;;;;;;;0.73;100.00;103401.09;10143436;28;20723;-66
2022/02/28 02:27:03;;;;;;;29.58;13.23;;;;;;;0.69;100.00;103400.63;10146518;28;20513;-67
2022/02/28 02:32:07;;;;;;;22.08;11.88;;;;;;;0.69;100.00;103405.19;10150075;28;20050;-67
2022/02/28 02:37:03;;;;;;;26.45;12.82;;;;;;;0.68;100.00;103408.91;10156597;28;20073;-66
2022/02/28 02:42:00;;;;;;;23.20;12.70;;;;;;;0.65;100.00;103414.63;10158677;28;20074;-67
2022/02/28 02:46:56;;;;;;;23.88;11.57;;;;;;;0.51;100.00;103409.09;10153149;28;20077;-67
2022/02/28 02:51:53;;;;;;;25.10;12.02;;;;;;;0.53;100.00;103415.09;10157227;28;20074;-68
2022/02/28 02:56:50;;;;;;;22.67;12.40;;;;;;;0.54;100.00;103397.94;10155034;28;20124;-69
2022/02/28 03:01:47;;;;;;;29.33;13.45;;;;;;;0.47;100.00;103406.94;10154585;28;20555;-67
2022/02/28 03:06:44;;;;;;;26.23;14.02;;;;;;;0.43;100.00;103398.38;10150307;28;20042;-68
2022/02/28 03:11:45;;;;;;;24.83;13.05;;;;;;;0.34;100.00;103396.78;10156562;28;20101;-68
2022/02/28 03:16:41;;;;;;;26.05;13.23;;;;;;;0.37;100.00;103393.72;10154227;28;20094;-67
2022/02/28 03:21:38;;;;;;;23.17;13.30;;;;;;;0.32;100.00;103393.44;10153181;28;20470;-68
2022/02/28 03:26:34;;;;;;;28.50;13.40;;;;;;;0.34;100.00;103386.84;10152282;28;20129;-68
2022/02/28 03:31:30;;;;;;;24.98;12.02;;;;;;;0.31;100.00;103381.03;10156298;28;20070;-66
2022/02/28 03:36:27;;;;;;;28.98;13.90;;;;;;;0.24;100.00;103380.09;10155324;28;20039;-68
2022/02/28 03:41:23;;;;;;;27.95;12.57;;;;;;;0.23;100.00;103373.03;10152693;28;20054;-68
2022/02/28 03:46:20;;;;;;;23.90;12.82;;;;;;;0.25;100.00;103370.97;10149654;28;20474;-68
2022/02/28 03:51:16;;;;;;;25.85;13.40;;;;;;;0.25;100.00;103355.66;10154162;28;20125;-68
2022/02/28 03:56:13;;;;;;;23.20;11.63;;;;;;;0.30;100.00;103357.81;10155026;28;20508;-68
2022/02/28 04:01:09;;;;;;;25.58;12.68;;;;;;;0.26;100.00;103354.66;10150877;28;20582;-69
2022/02/28 04:06:07;;;;;;;26.23;14.02;;;;;;;0.29;100.00;103356.16;10145452;28;20446;-67
2022/02/28 04:11:07;;;;;;;25.70;13.82;;;;;;;0.26;100.00;103357.34;10153957;28;20426;-68
2022/02/28 04:16:04;;;;;;;26.70;13.95;;;;;;;0.29;100.00;103350.75;10153339;28;20046;-67
2022/02/28 04:21:00;;;;;;;26.75;14.38;;;;;;;0.25;100.00;103354.84;10151456;28;20054;-67
2022/02/28 04:25:59;;;;;;;25.17;13.07;;;;;;;0.17;100.00;103364.66;10148075;28;20046;-67
2022/02/28 04:30:56;;;;;;;28.63;13.73;;;;;;;0.11;100.00;103360.00;10154284;28;20081;-67
2022/02/28 04:35:53;;;;;;;27.90;13.68;;;;;;;0.08;100.00;103354.16;10151459;28;20073;-67
2022/02/28 04:40:49;;;;;;;28.55;14.13;;;;;;;0.10;100.00;103342.22;10151432;28;20475;-68
2022/02/28 04:45:46;;;;;;;29.08;15.18;;;;;;;0.08;100.00;103333.47;10145917;28;20071;-67
2022/02/28 04:50:42;;;;;;;26.88;14.93;;;;;;;0.05;100.00;103339.22;10151873;28;20046;-68
2022/02/28 04:55:39;;;;;;;28.02;13.93;;;;;;;0.13;100.00;103341.00;10152953;28;20042;-67
2022/02/28 05:00:35;;;;;;;29.38;14.45;;;;;;;0.06;100.00;103348.97;10148401;28;20127;-68
2022/02/28 05:05:32;;;;;;;30.73;13.63;;;;;;;0.00;100.00;103352.41;10150567;28;20410;-67
2022/02/28 05:10:28;;;;;;;27.77;15.13;;;;;;;-0.06;100.00;103353.13;10142911;28;20049;-68
2022/02/28 05:15:26;;;;;;;28.35;15.25;;;;;;;-0.11;100.00;103350.16;10142576;28;20078;-67
2022/02/28 05:20:22;;;;;;;30.67;14.43;;;;;;;-0.10;100.00;103346.44;10146145;28;20050;-67
2022/02/28 05:25:19;;;;;;;31.30;16.20;;;;;;;-0.10;100.00;103346.44;10139813;28;20050;-68
2022/02/28 05:30:16;;;;;;;31.85;15.80;;;;;;;-0.13;100.00;103342.25;10130248;28;20088;-67
2022/02/28 05:35:13;;;;;;;27.05;14.07;;;;;;;-0.22;100.00;103336.09;10144836;28;20614;-67
2022/02/28 05:40:11;;;;;;;27.83;15.43;;;;;;;-0.09;100.00;103340.03;10134254;28;20401;-67
2022/02/28 05:45:09;;;;;;;29.80;17.20;;;;;;;0.00;100.00;103341.66;10128508;28;20511;-68
2022/02/28 05:50:06;;;;;;;28.83;15.05;;;;;;;0.03;100.00;103346.66;10144817;28;20097;-68
2022/02/28 05:55:03;;;;;;;32.15;16.00;;;;;;;0.07;100.00;103347.97;10144637;28;20142;-68
2022/02/28 06:00:00;;;;;;;30.17;15.95;;;;;;;0.16;100.00;103357.63;10151399;28;20105;-68
2022/02/28 06:04:56;;;;;;;31.45;16.38;;;;;;;0.14;100.00;103356.97;10147214;28;20508;-67
2022/02/28 06:09:53;;;;;;;32.80;17.42;;;;;;;0.15;100.00;103344.34;10148641;28;20522;-67
2022/02/28 06:14:49;;;;;;;34.35;17.30;;;;;;;0.03;100.00;103361.97;10142278;28;20043;-66
2022/02/28 06:19:47;;;;;;;36.80;18.33;;;;;;;0.10;100.00;103357.53;10135809;28;20066;-67
2022/02/28 06:24:43;;;;;;;38.13;19.45;;;;;;;0.10;100.00;103363.72;10123695;28;20074;-67
2022/02/28 06:29:40;;;;;;;32.22;17.52;;;;;;;0.10;100.00;103362.91;10111715;28;20047;-66
2022/02/28 06:34:36;;;;;;;37.40;18.33;;;;;;;0.03;100.00;103373.56;10144166;28;20058;-66
2022/02/28 06:39:33;;;;;;;33.05;16.80;;;;;;;0.09;100.00;103362.03;10144267;28;20119;-66
2022/02/28 06:44:29;;;;;;;37.53;19.13;;;;;;;0.07;100.00;103363.25;10150313;28;20512;-66
2022/02/28 06:49:26;;;;;;;37.33;19.17;;;;;;;0.07;100.00;103369.47;10142902;28;20703;-68
2022/02/28 06:54:22;;;;;;;39.03;19.00;;;;;;;0.05;100.00;103376.91;10166304;28;20508;-68
2022/02/28 06:59:19;;;;;;;43.45;20.27;;;;;;;0.12;100.00;103377.84;10125585;28;20501;-69
2022/02/28 07:04:15;;;;;;;39.97;20.70;;;;;;;0.14;100.00;103381.19;10114088;28;20086;-69
2022/02/28 07:09:12;;;;;;;43.47;20.65;;;;;;;0.16;100.00;103389.91;10114936;28;20070;-69
2022/02/28 07:14:08;;;;;;;41.10;20.58;;;;;;;0.16;100.00;103375.59;10118617;28;20137;-69
2022/02/28 07:19:05;;;;;;;36.20;18.77;;;;;;;0.10;100.00;103379.88;10121467;28;20066;-69
2022/02/28 07:24:01;;;;;;;40.30;20.58;;;;;;;0.15;100.00;103384.69;10124043;28;20074;-69
2022/02/28 07:28:58;;;;;;;43.28;21.70;;;;;;;0.15;100.00;103387.41;10131770;28;20077;-68
2022/02/28 07:34:03;;;;;;;38.00;20.58;;;;;;;0.08;100.00;103392.66;10138677;28;20050;-69
2022/02/28 07:39:00;;;;;;;40.03;20.27;;;;;;;0.10;100.00;103387.94;10149198;28;20046;-69
2022/02/28 07:43:56;;;;;;;45.00;20.70;;;;;;;0.10;100.00;103374.50;10153764;28;20142;-68
2022/02/28 07:48:53;;;;;;;44.75;22.15;;;;;;;0.19;100.00;103383.34;10150207;28;20576;-69
2022/02/28 07:53:50;;;;;;;40.53;20.63;;;;;;;0.14;100.00;103385.69;10148647;28;20046;-69
2022/02/28 07:58:46;;;;;;;39.67;20.73;;;;;;;0.13;100.00;103384.88;10147200;28;20053;-69
2022/02/28 08:03:43;;;;;;;45.00;21.63;;;;;;;0.28;100.00;103402.91;10154720;28;20109;-70
2022/02/28 08:08:39;;;;;;;41.38;20.80;;;;;;;0.37;100.00;103407.19;10143448;28;20149;-69
2022/02/28 08:13:36;;;;;;;36.67;19.67;;;;;;;0.44;100.00;103397.34;10141723;28;20464;-68
2022/02/28 08:18:32;;;;;;;41.35;20.75;;;;;;;0.47;100.00;103399.69;10146642;28;20554;-69
2022/02/28 08:23:29;;;;;;;41.75;21.75;;;;;;;0.63;100.00;103399.53;10139019;28;20566;-69
2022/02/28 08:28:25;;;;;;;44.13;20.58;;;;;;;0.70;100.00;103396.09;10121251;28;20082;-68
2022/02/28 08:33:22;;;;;;;44.63;21.80;;;;;;;0.74;100.00;103402.75;10118245;28;20524;-69
2022/02/28 08:38:18;;;;;;;39.55;20.13;;;;;;;0.78;100.00;103398.69;10146947;28;20058;-68
2022/02/28 08:43:15;;;;;;;41.03;21.02;;;;;;;0.80;100.00;103402.84;10155141;28;20108;-69
2022/02/28 08:48:11;;;;;;;48.88;25.10;;;;;;;0.83;100.00;103407.84;10115706;28;20134;-69
2022/02/28 08:53:08;;;;;;;46.15;23.83;;;;;;;0.97;100.00;103408.88;10125052;28;20070;-68
2022/02/28 08:58:04;;;;;;;45.15;22.80;;;;;;;0.97;100.00;103416.94;10145737;28;20133;-69
2022/02/28 09:03:06;;;;;;;45.67;23.00;;;;;;;1.14;100.00;103420.28;10155442;28;20129;-68
2022/02/28 09:08:03;;;;;;;46.20;24.20;;;;;;;1.37;100.00;103412.06;10115871;28;20501;-68
2022/02/28 09:13:00;;;;;;;46.65;22.17;;;;;;;1.55;100.00;103421.59;10152144;28;20457;-68
2022/02/28 09:17:57;;;;;;;45.25;22.80;;;;;;;1.74;100.00;103415.59;10132417;28;20053;-68
2022/02/28 09:22:53;;;;;;;46.47;23.17;;;;;;;1.94;100.00;103431.13;10154739;28;20078;-66
2022/02/28 09:27:50;;;;;;;46.15;23.20;;;;;;;2.00;100.00;103435.75;10131605;28;20043;-66
2022/02/28 09:32:50;;;;;;;44.63;22.08;;;;;;;2.17;100.00;103431.72;10143057;28;20467;-68
2022/02/28 09:37:46;;;;;;;47.10;23.67;;;;;;;2.34;100.00;103421.47;10143460;28;20809;-68
2022/02/28 09:42:46;;;;;;;46.13;23.08;;;;;;;2.31;100.00;103427.28;10153759;28;20058;-68
2022/02/28 09:47:45;;;;;;;40.95;21.23;;;;;;;2.73;100.00;103430.88;10122133;28;20080;-69
2022/02/28 09:52:41;;;;;;;40.78;20.65;;;;;;;2.90;100.00;103421.44;10114426;28;20105;-68
2022/02/28 09:57:44;;;;;;;41.17;21.58;;;;;;;3.03;100.00;103420.66;10121942;28;20066;-68
2022/02/28 10:02:40;;;;;;;40.92;21.23;;;;;;;3.24;100.00;103432.41;10111178;28;20054;-68
2022/02/28 10:07:52;;;;;;;38.08;20.13;;;;;;;3.51;100.00;103428.75;10109095;28;20141;-68
2022/02/28 10:12:49;;;;;;;34.53;18.70;;;;;;;4.11;100.00;103422.59;10119983;28;20042;-68
2022/02/28 10:17:56;;;;;;;32.20;18.65;;;;;;;4.49;100.00;103419.25;10136042;28;20129;-68
2022/02/28 10:22:58;;;;;;;37.10;18.55;;;;;;;4.63;100.00;103420.88;10151502;28;20046;-68
2022/02/28 10:28:18;;;;;;;33.72;18.75;;;;;;;4.68;100.00;103418.34;10115010;28;20070;-68
2022/02/28 10:33:15;;;;;;;35.38;18.20;;;;;;;4.78;100.00;103416.06;10141428;28;20100;-68
2022/02/28 10:38:15;;;;;;;31.08;18.30;;;;;;;4.82;100.00;103413.75;10139463;28;20145;-68
2022/02/28 10:43:30;;;;;;;28.83;16.38;;;;;;;4.65;100.00;103418.78;10151617;28;20547;-68
2022/02/28 10:48:27;;;;;;;30.23;17.25;;;;;;;4.94;100.00;103416.63;10135537;28;20226;-69
2022/02/28 10:53:23;;;;;;;27.13;15.65;;;;;;;5.08;100.00;103412.81;10153123;28;20050;-68
2022/02/28 10:58:24;;;;;;;30.10;16.50;;;;;;;5.21;100.00;103418.19;10146106;28;20447;-68
2022/02/28 11:03:23;;;;;;;32.28;16.70;;;;;;;5.57;100.00;103419.47;10174775;28;20082;-68
2022/02/28 11:08:22;;;;;;;30.45;16.13;;;;;;;5.69;100.00;103425.88;10149413;28;20129;-68
2022/02/28 11:13:21;;;;;;;26.50;15.73;;;;;;;5.88;100.00;103426.78;10127137;28;20059;-68
2022/02/28 11:18:20;;;;;;;28.08;16.05;;;;;;;6.25;100.00;103423.41;10144658;28;20527;-68
2022/02/28 11:23:19;;;;;;;27.67;14.88;;;;;;;6.19;100.00;103416.13;10129086;28;20054;-69
2022/02/28 11:28:17;;;;;;;25.13;13.98;;;;;;;6.24;100.00;103424.44;10145734;28;20050;-68
2022/02/28 11:33:15;;;;;;;25.80;14.70;;;;;;;6.18;100.00;103423.44;10157811;28;20133;-68
2022/02/28 11:38:15;;;;;;;21.88;12.90;;;;;;;6.39;100.00;103418.69;10125888;28;20524;-68
2022/02/28 11:43:22;;;;;;;20.85;12.52;;;;;;;6.81;100.00;103399.84;10158241;28;20112;-68
2022/02/28 11:48:24;;;;;;;21.00;12.55;;;;;;;7.10;100.00;103403.66;10133243;28;20112;-68
2022/02/28 11:53:43;;;;;;;22.00;13.45;;;;;;;7.00;100.00;103409.66;10120305;28;20093;-68
2022/02/28 11:58:56;;;;;;;20.52;12.30;;;;;;;7.27;100.00;103410.16;10135066;28;20093;-68
2022/02/28 12:04:07;;;;;;;20.20;12.00;;;;;;;7.33;100.00;103408.38;10124069;28;20042;-68
2022/02/28 12:09:04;;;;;;;19.48;12.48;;;;;;;7.67;100.00;103397.88;10149606;28;20042;-68
2022/02/28 12:14:04;;;;;;;20.40;12.07;;;;;;;7.85;100.00;103388.81;10153676;28;20093;-68
2022/02/28 12:19:13;;;;;;;19.13;11.60;;;;;;;7.98;100.00;103377.66;10133568;28;20043;-68
2022/02/28 12:24:11;;;;;;;19.38;11.48;;;;;;;8.25;100.00;103378.03;10151978;28;20085;-67
2022/02/28 12:29:10;;;;;;;19.55;12.25;;;;;;;8.54;100.00;103381.75;10116960;28;20457;-68
2022/02/28 12:34:10;;;;;;;17.92;11.25;;;;;;;9.12;92.81;103381.84;10123935;28;20649;-67
2022/02/28 12:39:17;;;;;;;17.80;10.95;;;;;;;9.97;89.33;103371.88;10116785;28;20075;-69
2022/02/28 12:44:17;;;;;;;15.95;10.75;;;;;;;10.61;82.78;103375.06;10128156;28;20054;-69
2022/02/28 12:49:17;;;;;;;17.95;11.05;;;;;;;10.67;75.66;103376.75;10144192;28;20121;-69
2022/02/28 12:54:20;;;;;;;15.70;10.30;;;;;;;12.05;73.66;103380.16;10146703;28;20057;-69
2022/02/28 12:59:17;;;;;;;13.80;9.85;;;;;;;12.81;63.15;103365.19;10147978;28;20479;-69
2022/02/28 13:04:19;;;;;;;15.07;9.73;;;;;;;13.06;57.03;103364.47;10154929;28;20753;-69
2022/02/28 13:09:17;;;;;;;13.85;10.15;;;;;;;13.25;55.85;103354.63;10138244;28;20473;-69
2022/02/28 13:14:25;;;;;;;16.52;11.10;;;;;;;13.86;52.61;103350.31;10143608;28;20568;-69
2022/02/28 13:19:27;;;;;;;16.33;10.63;;;;;;;13.81;52.52;103339.31;10121753;28;20100;-68
2022/02/28 13:24:26;;;;;;;15.45;9.95;;;;;;;13.76;49.39;103320.06;10153411;28;20134;-68
2022/02/28 13:29:25;;;;;;;14.77;10.40;;;;;;;14.13;47.93;103324.41;10136024;28;20145;-69
2022/02/28 13:34:22;;;;;;;16.13;11.63;;;;;;;14.21;50.44;103321.09;10148417;28;20054;-68
2022/02/28 13:39:26;;;;;;;16.00;11.10;;;;;;;13.88;45.31;103323.38;10135378;28;20047;-68
2022/02/28 13:44:25;;;;;;;14.88;10.82;;;;;;;13.76;44.88;103314.56;10151499;28;20053;-68
2022/02/28 13:49:23;;;;;;;17.73;11.32;;;;;;;13.88;46.03;103302.19;10145067;28;20074;-68
2022/02/28 13:54:19;;;;;;;15.25;10.38;;;;;;;13.95;44.74;103290.91;10151328;28;20085;-68
2022/02/28 13:59:16;;;;;;;15.65;11.10;;;;;;;14.14;44.07;103282.03;10112688;28;20085;-68
2022/02/28 14:04:12;;;;;;;17.08;10.93;;;;;;;13.75;44.62;103277.19;10135925;28;20054;-68
2022/02/28 14:09:09;;;;;;;15.10;10.93;;;;;;;14.26;43.47;103263.28;10145328;28;20058;-69
2022/02/28 14:14:11;;;;;;;17.55;11.75;;;;;;;14.03;44.00;103265.56;10133565;28;20101;-67
2022/02/28 14:19:19;;;;;;;17.70;11.15;;;;;;;13.87;43.62;103266.69;10155048;28;20053;-68
2022/02/28 14:24:18;;;;;;;15.45;11.20;;;;;;;14.13;44.56;103252.88;10167731;28;20054;-68
2022/02/28 14:29:16;;;;;;;14.38;10.38;;;;;;;14.06;44.52;103254.00;10150274;28;20046;-68
2022/02/28 14:34:14;;;;;;;15.43;10.65;;;;;;;14.25;44.90;103253.38;10150275;28;20476;-71
2022/02/28 14:39:13;;;;;;;14.50;10.23;;;;;;;13.96;44.56;103254.03;10139151;28;20045;-69
2022/02/28 14:44:10;;;;;;;15.07;10.95;;;;;;;14.53;44.68;103260.97;10133408;28;20500;-68
2022/02/28 14:49:08;;;;;;;13.35;9.48;;;;;;;14.30;44.52;103269.88;10145979;28;20527;-66
2022/02/28 14:54:05;;;;;;;16.45;10.27;;;;;;;14.22;44.46;103264.94;10143425;28;20109;-66
2022/02/28 14:59:02;;;;;;;13.52;10.27;;;;;;;13.52;44.84;103254.66;10136298;28;20477;-66
2022/02/28 15:03:59;;;;;;;15.63;10.90;;;;;;;13.45;45.63;103251.34;10129921;28;20089;-66
2022/02/28 15:08:56;;;;;;;14.68;9.95;;;;;;;12.84;47.72;103244.69;10141068;28;20089;-66
2022/02/28 15:13:52;;;;;;;16.52;11.18;;;;;;;12.68;48.36;103251.25;10147660;28;20093;-65
2022/02/28 15:18:49;;;;;;;15.40;10.25;;;;;;;12.52;49.65;103252.28;10146336;28;20643;-69
2022/02/28 15:23:45;;;;;;;16.08;10.80;;;;;;;12.09;51.74;103262.50;10141036;28;20488;-68
2022/02/28 15:28:42;;;;;;;15.25;11.10;;;;;;;11.32;54.05;103256.47;10140679;28;20106;-68
2022/02/28 15:33:39;;;;;;;14.80;10.85;;;;;;;10.90;59.90;103254.44;10144370;28;20050;-70
2022/02/28 15:38:35;;;;;;;17.75;10.23;;;;;;;10.56;62.19;103249.16;10136903;28;20081;-67
2022/02/28 15:43:32;;;;;;;15.90;10.32;;;;;;;10.44;63.81;103241.09;10135378;28;20038;-68
2022/02/28 15:48:28;;;;;;;16.23;10.88;;;;;;;10.16;63.08;103238.50;10138045;28;20148;-68
2022/02/28 15:53:25;;;;;;;14.25;9.07;;;;;;;9.58;67.18;103237.94;10146381;28;20042;-68
2022/02/28 15:58:21;;;;;;;14.85;9.50;;;;;;;9.41;70.89;103238.78;10143655;28;20046;-69
2022/02/28 16:03:20;;;;;;;15.15;8.57;;;;;;;9.18;72.55;103236.19;10143452;28;20076;-68
2022/02/28 16:08:17;;;;;;;11.55;7.43;;;;;;;8.63;77.48;103235.75;10147456;28;20057;-68
2022/02/28 16:13:13;;;;;;;12.05;7.57;;;;;;;8.72;79.70;103238.91;10164500;28;20692;-68
2022/02/28 16:18:10;;;;;;;12.38;7.25;;;;;;;8.28;81.95;103240.44;10149967;28;20542;-69
2022/02/28 16:23:06;;;;;;;18.02;8.05;;;;;;;8.39;83.65;103247.78;10146032;28;20042;-69
2022/02/28 16:28:03;;;;;;;11.93;7.05;;;;;;;7.79;89.59;103227.94;10140567;28;20125;-69
2022/02/28 16:32:59;;;;;;;13.93;7.45;;;;;;;7.70;90.99;103223.94;10141186;28;20046;-68
2022/02/28 16:37:56;;;;;;;12.52;7.68;;;;;;;7.21;95.22;103226.00;10137653;28;20047;-68
2022/02/28 16:42:52;;;;;;;13.05;7.30;;;;;;;7.30;96.47;103246.38;10133691;28;20077;-69
2022/02/28 16:47:49;;;;;;;12.98;7.32;;;;;;;7.20;96.67;103235.25;10135371;28;20273;-68
2022/02/28 16:52:46;;;;;;;16.40;7.93;;;;;;;6.98;99.06;103248.53;10142360;28;20050;-68
2022/02/28 16:57:42;;;;;;;15.20;8.15;;;;;;;6.99;100.00;103238.53;10140643;28;20562;-68
2022/02/28 17:02:41;;;;;;;14.13;8.48;;;;;;;6.94;100.00;103253.63;10137250;28;20061;-69
2022/02/28 17:07:44;;;;;;;14.85;8.88;;;;;;;6.69;100.00;103256.47;10131962;28;20050;-70
2022/02/28 17:12:41;;;;;;;14.70;8.32;;;;;;;6.67;100.00;103255.88;10136203;28;20054;-69
2022/02/28 17:17:37;;;;;;;15.80;9.35;;;;;;;6.55;100.00;103275.94;10138299;28;20096;-69
2022/02/28 17:22:34;;;;;;;16.80;9.07;;;;;;;6.07;100.00;103267.44;10141293;28;20050;-69
2022/02/28 17:27:31;;;;;;;17.05;10.02;;;;;;;6.00;100.00;103257.72;10127646;28;20069;-69
2022/02/28 17:32:28;;;;;;;17.67;9.32;;;;;;;5.56;100.00;103246.81;10115348;28;20109;-69
2022/02/28 17:37:30;;;;;;;15.10;9.00;;;;;;;5.60;100.00;103242.59;10117723;28;20049;-69
2022/02/28 17:42:26;;;;;;;18.85;9.95;;;;;;;5.37;100.00;103236.97;10121670;28;20066;-69
2022/02/28 17:47:23;;;;;;;14.63;8.43;;;;;;;5.32;100.00;103240.34;10130098;28;20085;-68
2022/02/28 17:52:20;;;;;;;16.40;9.90;;;;;;;5.16;100.00;103247.13;10124893;28;20055;-69
2022/02/28 17:57:17;;;;;;;17.65;9.68;;;;;;;4.98;100.00;103231.59;10128892;28;20042;-69
2022/02/28 18:02:17;;;;;;;17.85;8.90;;;;;;;4.88;100.00;103227.72;10133433;28;20046;-69
2022/02/28 18:07:14;;;;;;;16.60;9.65;;;;;;;4.69;100.00;103224.91;10134202;28;20054;-68
2022/02/28 18:12:10;;;;;;;21.65;9.30;;;;;;;4.62;100.00;103234.94;10138134;28;20145;-69
2022/02/28 18:17:07;;;;;;;15.48;9.07;;;;;;;4.46;100.00;103230.84;10127698;28;20423;-69
2022/02/28 18:22:03;;;;;;;15.60;9.38;;;;;;;4.34;100.00;103227.13;10138167;28;20046;-68
2022/02/28 18:27:02;;;;;;;17.05;9.05;;;;;;;4.28;100.00;103228.81;10134145;28;20096;-68
2022/02/28 18:31:59;;;;;;;17.58;10.20;;;;;;;4.16;100.00;103230.53;10138468;28;20559;-69
2022/02/28 18:36:55;;;;;;;17.05;9.10;;;;;;;4.04;100.00;103229.53;10137340;28;20081;-68
2022/02/28 18:41:52;;;;;;;19.27;9.80;;;;;;;3.94;100.00;103222.66;10141755;28;20046;-69
2022/02/28 18:46:48;;;;;;;16.27;9.30;;;;;;;3.85;100.00;103234.75;10130442;28;20181;-69
2022/02/28 18:51:45;;;;;;;18.90;9.57;;;;;;;3.70;100.00;103239.59;10132471;28;20780;-69
2022/02/28 18:56:41;;;;;;;18.95;9.70;;;;;;;3.73;100.00;103247.28;10128924;28;20138;-69
2022/02/28 19:01:38;;;;;;;19.33;9.85;;;;;;;3.56;100.00;103253.13;10136256;28;20137;-69
2022/02/28 19:06:35;;;;;;;21.30;9.98;;;;;;;3.63;100.00;103253.13;10147377;28;20077;-69
2022/02/28 19:11:31;;;;;;;20.63;10.85;;;;;;;3.59;100.00;103247.28;10138019;28;20085;-69
2022/02/28 19:16:28;;;;;;;20.52;11.88;;;;;;;3.31;100.00;103260.19;10137084;28;20077;-69
2022/02/28 19:21:24;;;;;;;22.65;11.02;;;;;;;3.45;100.00;103261.03;10144564;28;20053;-69
2022/02/28 19:26:21;;;;;;;22.73;11.13;;;;;;;3.39;100.00;103257.28;10117432;28;20057;-69
2022/02/28 19:31:17;;;;;;;20.38;10.77;;;;;;;3.29;100.00;103251.44;10138964;28;20054;-69
2022/02/28 19:36:14;;;;;;;20.25;10.85;;;;;;;3.24;100.00;103254.75;10121375;28;20591;-69
2022/02/28 19:41:12;;;;;;;19.75;10.63;;;;;;;3.24;100.00;103259.34;10140278;28;20096;-69
2022/02/28 19:46:11;;;;;;;17.85;10.27;;;;;;;3.24;100.00;103259.34;10147852;28;20534;-69
2022/02/28 19:51:08;;;;;;;20.45;11.18;;;;;;;3.24;100.00;103253.94;10133981;28;20243;-69
2022/02/28 19:56:05;;;;;;;20.25;11.15;;;;;;;3.14;100.00;103257.88;10133888;28;20104;-69
2022/02/28 20:01:02;;;;;;;21.17;10.77;;;;;;;3.07;100.00;103253.50;10147227;28;20137;-69
2022/02/28 20:05:59;;;;;;;21.95;11.07;;;;;;;3.02;100.00;103248.72;10138174;28;20150;-69
2022/02/28 20:10:57;;;;;;;22.73;11.60;;;;;;;3.04;100.00;103241.22;10130349;28;20105;-68
2022/02/28 20:15:56;;;;;;;20.13;10.80;;;;;;;2.89;100.00;103251.38;10136658;28;20109;-68
2022/02/28 20:20:57;;;;;;;18.75;10.38;;;;;;;2.86;100.00;103249.91;10147784;28;20049;-68
2022/02/28 20:25:53;;;;;;;20.17;11.48;;;;;;;2.82;100.00;103234.31;10144307;28;20077;-69
2022/02/28 20:30:50;;;;;;;23.15;10.23;;;;;;;2.79;100.00;103229.34;10133022;28;20109;-68
2022/02/28 20:35:47;;;;;;;22.75;11.10;;;;;;;2.68;100.00;103218.06;10145232;28;20046;-69
2022/02/28 20:40:46;;;;;;;23.95;12.30;;;;;;;2.67;100.00;103211.00;10145260;28;20093;-69
2022/02/28 20:45:44;;;;;;;22.33;10.85;;;;;;;2.71;100.00;103216.81;10134727;28;20451;-69
2022/02/28 20:50:40;;;;;;;18.98;10.75;;;;;;;2.79;100.00;103215.81;10139407;28;20504;-69
2022/02/28 20:55:37;;;;;;;22.65;12.07;;;;;;;2.76;100.00;103213.50;10122223;28;20074;-69
2022/02/28 21:00:33;;;;;;;22.27;10.90;;;;;;;2.71;100.00;103211.41;10134591;28;20047;-69
2022/02/28 21:05:30;;;;;;;20.40;10.68;;;;;;;2.66;100.00;103213.91;10151067;28;20517;-69
2022/02/28 21:10:26;;;;;;;22.67;11.48;;;;;;;2.55;100.00;103209.09;10125602;28;20043;-69
2022/02/28 21:15:23;;;;;;;25.33;12.68;;;;;;;2.57;100.00;103199.75;10139182;28;20054;-74
2022/02/28 21:20:19;;;;;;;22.73;12.05;;;;;;;2.39;100.00;103207.56;10134456;28;20058;-73
2022/02/28 21:25:16;;;;;;;23.17;12.02;;;;;;;2.51;100.00;103195.16;10134343;28;20124;-72
2022/02/28 21:30:13;;;;;;;23.50;12.52;;;;;;;2.53;100.00;103187.69;10139695;28;20046;-69
2022/02/28 21:35:10;;;;;;;26.63;13.18;;;;;;;2.39;100.00;103188.66;10143488;28;20058;-69
2022/02/28 21:40:07;;;;;;;24.95;12.88;;;;;;;2.39;100.00;103191.38;10142704;28;20054;-71
2022/02/28 21:45:04;;;;;;;26.88;12.88;;;;;;;2.39;100.00;103186.81;10141451;28;20058;-69
2022/02/28 21:50:01;;;;;;;24.25;12.18;;;;;;;2.41;100.00;103178.50;10144262;28;20042;-70
2022/02/28 21:54:58;;;;;;;25.20;11.73;;;;;;;2.27;100.00;103183.84;10160710;28;20051;-71
2022/02/28 21:59:55;;;;;;;25.95;12.18;;;;;;;2.38;100.00;103181.63;10149539;28;20460;-71
2022/02/28 22:04:56;;;;;;;22.27;11.80;;;;;;;2.29;100.00;103175.56;10126753;28;20543;-71
2022/02/28 22:09:52;;;;;;;26.17;11.57;;;;;;;2.31;100.00;103174.31;10121496;28;20105;-71
2022/02/28 22:14:49;;;;;;;25.63;12.48;;;;;;;2.25;100.00;103180.53;10121424;28;20043;-71
2022/02/28 22:19:46;;;;;;;22.83;12.10;;;;;;;2.01;100.00;103167.53;10133748;28;20097;-71